Sintra, Portugal

7:53 AM WEST on April 25, 2015 (GMT +0100)
www.meteocacem.pt | | Change Station
CLOSE
Current Station
Personal Weather Station
Location: Agualva-Cacem, Sintra
Elevation: 515 ft
Nearby Weather Stations

Elev 515 ft 38.77 °N, 9.30 °W | Updated 1 second ago

Mostly Cloudy
Mostly Cloudy
59.4 °F
Feels Like 59.4 °F
N
11.5
Wind Variable Wind from SSW
Gusts 11.5 mph

Today
High -- | Low -- °F
--% Chance of Precip.
Yesterday
High -- | Low -- °F
Precip. -- in
6:47 AM 8:23 PM
Waxing Crescent, 43% visible
Pressure 29.98 in
Visibility 6.2 miles
Clouds Scattered Clouds 700 ft
Mostly Cloudy 2200 ft
Dew Point 56 °F
Humidity 87%
Rainfall 0.06 in
Snow Depth Not available.
UV 0 out of 12
Pollen Not available.
Air Quality Not available.
Flu Activity Not available.
METAR LPPT 250630Z 22009KT 9999 SCT007 BKN022 16/14 Q1015

More Conditions Fewer Conditions

Pressure 29.98 in
Visibility 6.2 miles
Clouds Scattered Clouds 700 ft
Mostly Cloudy 2200 ft
Dew Point 56 °F
Humidity 87%
Rainfall 0.06 in
Snow Depth Not available.
UV 0 out of 12
Pollen Not available.
Air Quality Not available.
Flu Activity Not available.
METAR LPPT 250630Z 22009KT 9999 SCT007 BKN022 16/14 Q1015

More Conditions Fewer Conditions

10-Day Weather Forecast

Almanac

Astronomy

Apr. 25, 2015 Rise Set
Actual Time
Civil Twilight
Nautical Twilight
Astronomical Twilight
Moon
Length of Visible Light
Length of Day
Tomorrow will be .
, % of the Moon is Illuminated

Today's Extremes

Country Highs Country Lows

Community

WunderPhotos

Upload Photos

1,816,624 photos uploaded!

WunderBlogs® & News

Nearby

Air Quality

  Air Quality AQ Index Pollutant
Not available.

Snow Depth

Station Depth Elevation

Earthquake Activity

City Distance Mag. Time & Date
Minimum magnitude displayed is 2.5.

Coastal Water Temperatures

Place Temperature

Stations

Nearby Weather Stations

Station Location Temp. Windchill Dew Point Humidity Wind Precip. Elev Updated Type